Time;durP1;ratioP1;P1;durP2;ratioP2;P2;SDS_P1;SDS_P2;PMS_P1;PMS_P2;Temp;Humidity;BMP_temperature;BMP_pressure;BME280_temperature;BME280_humidity;BME280_pressure;Samples;Min_cycle;Max_cycle;Signal;HPM_P1;HPM_P2
2021/04/01 00:04:52;;;;;;;50.00;22.58;;;10.90;99.90;;;;;;4978955;28;20041;-67
2021/04/01 00:07:24;;;;;;;55.28;23.13;;;10.90;99.90;;;;;;4978554;28;20116;-67
2021/04/01 00:09:52;;;;;;;60.17;25.38;;;10.90;99.90;;;;;;4957752;28;20077;-68
2021/04/01 00:12:18;;;;;;;56.53;25.83;;;10.90;99.90;;;;;;4974875;28;20491;-67
2021/04/01 00:14:50;;;;;;;62.85;28.13;;;10.90;99.90;;;;;;4985245;28;20437;-67
2021/04/01 00:21:17;;;;;;;78.03;30.38;;;10.90;99.90;;;;;;4984527;28;20139;-67
2021/04/01 00:24:17;;;;;;;65.82;28.30;;;11.00;99.90;;;;;;4974589;28;20130;-67
2021/04/01 00:27:18;;;;;;;69.60;27.52;;;11.10;99.90;;;;;;4973711;28;20049;-68
2021/04/01 00:29:49;;;;;;;68.32;27.13;;;11.20;99.90;;;;;;4974473;28;20141;-67
2021/04/01 00:32:18;;;;;;;67.45;28.15;;;11.20;99.90;;;;;;4974462;28;20125;-69
2021/04/01 00:34:50;;;;;;;68.03;28.70;;;11.20;99.90;;;;;;4988183;28;20046;-67
2021/04/01 00:37:18;;;;;;;70.20;29.40;;;11.40;99.90;;;;;;4979257;28;20070;-68
2021/04/01 00:39:50;;;;;;;83.50;32.95;;;11.30;99.90;;;;;;4957781;28;20054;-67
2021/04/01 00:42:22;;;;;;;79.68;32.70;;;11.40;99.90;;;;;;4979302;28;20046;-67
2021/04/01 00:44:51;;;;;;;83.07;34.50;;;11.50;99.90;;;;;;4976743;28;20047;-67
2021/04/01 00:47:18;;;;;;;76.80;29.25;;;11.60;99.90;;;;;;4994005;28;20379;-67
2021/04/01 00:49:56;;;;;;;75.28;28.95;;;11.70;99.90;;;;;;4974534;28;20038;-67
2021/04/01 00:52:35;;;;;;;77.53;29.65;;;11.70;99.90;;;;;;4976765;28;20049;-67
2021/04/01 00:55:31;;;;;;;92.88;35.10;;;11.70;99.90;;;;;;4992990;28;20042;-67
2021/04/01 01:02:20;;;;;;;78.50;30.75;;;11.80;99.90;;;;;;4978381;28;20165;-67
2021/04/01 01:04:54;;;;;;;84.95;32.53;;;11.80;99.90;;;;;;4973269;28;20046;-68
2021/04/01 01:07:54;;;;;;;88.32;37.50;;;11.80;99.90;;;;;;4973274;28;20122;-68
2021/04/01 01:10:28;;;;;;;91.65;38.20;;;11.80;99.90;;;;;;4977388;28;20047;-68
2021/04/01 01:20:27;;;;;;;87.45;35.35;;;11.80;99.90;;;;;;4989076;28;20100;-68
2021/04/01 01:23:21;;;;;;;86.20;36.37;;;11.80;99.90;;;;;;4976002;28;20081;-67
2021/04/01 01:26:04;;;;;;;85.65;35.00;;;11.80;99.90;;;;;;4971251;28;20134;-68
2021/04/01 01:28:30;;;;;;;76.22;32.20;;;11.80;99.90;;;;;;4988175;28;20307;-67
2021/04/01 01:35:41;;;;;;;71.00;29.75;;;11.70;99.90;;;;;;4987592;28;20105;-67
2021/04/01 01:38:13;;;;;;;78.07;32.13;;;11.70;99.90;;;;;;4977070;28;20423;-67
2021/04/01 01:40:46;;;;;;;86.88;36.90;;;11.70;99.90;;;;;;4989889;28;20054;-67
2021/04/01 01:43:15;;;;;;;79.35;31.90;;;11.60;99.90;;;;;;4985623;28;20090;-67
2021/04/01 01:45:44;;;;;;;84.70;35.13;;;11.60;99.90;;;;;;4993180;28;20049;-67
2021/04/01 01:48:19;;;;;;;80.10;34.10;;;11.60;99.90;;;;;;4981698;28;20118;-67
2021/04/01 01:51:01;;;;;;;76.18;31.65;;;11.50;99.90;;;;;;4977358;28;20042;-67
2021/04/01 01:53:29;;;;;;;79.45;33.05;;;11.50;99.90;;;;;;4988082;28;20053;-67
2021/04/01 01:56:18;;;;;;;78.97;33.30;;;11.50;99.90;;;;;;4979784;28;20057;-67
2021/04/01 02:03:03;;;;;;;68.80;28.75;;;11.40;99.90;;;;;;4985712;28;20066;-67
2021/04/01 02:05:37;;;;;;;64.88;28.00;;;11.30;99.90;;;;;;4989901;28;20050;-68
2021/04/01 02:08:04;;;;;;;67.03;28.65;;;11.20;99.90;;;;;;4960070;28;20125;-68
2021/04/01 02:10:39;;;;;;;67.28;29.90;;;11.20;99.90;;;;;;4977352;28;20047;-68
2021/04/01 02:20:42;;;;;;;58.90;27.13;;;11.10;99.90;;;;;;4987351;28;20513;-68
2021/04/01 02:27:05;;;;;;;59.80;26.90;;;10.90;99.90;;;;;;4991770;28;20446;-67
2021/04/01 02:33:11;;;;;;;70.72;30.50;;;10.80;99.90;;;;;;4959748;28;20387;-68
2021/04/01 02:35:40;;;;;;;80.35;33.95;;;10.80;99.90;;;;;;4991440;28;20050;-69
2021/04/01 02:38:07;;;;;;;74.57;32.20;;;10.80;99.90;;;;;;4984940;28;20141;-68
2021/04/01 02:40:40;;;;;;;81.07;31.75;;;10.70;99.90;;;;;;4960609;28;20450;-68
2021/04/01 02:46:53;;;;;;;61.22;26.80;;;10.60;99.90;;;;;;4987837;28;20398;-68
2021/04/01 02:53:07;;;;;;;76.28;31.10;;;10.50;99.90;;;;;;4989274;28;20101;-69
2021/04/01 02:55:34;;;;;;;70.30;30.70;;;10.60;99.90;;;;;;4982067;28;20034;-68
2021/04/01 02:58:07;;;;;;;71.97;31.30;;;10.50;99.90;;;;;;4980821;28;20043;-68
2021/04/01 03:00:41;;;;;;;81.68;32.25;;;10.60;99.90;;;;;;4981635;28;20063;-68
2021/04/01 03:03:21;;;;;;;79.53;33.35;;;10.50;99.90;;;;;;4975909;28;20073;-68
2021/04/01 03:05:49;;;;;;;87.38;37.40;;;10.50;99.90;;;;;;4990241;28;20077;-68
2021/04/01 03:12:22;;;;;;;102.20;40.83;;;10.50;99.90;;;;;;4995119;28;20033;-67
2021/04/01 03:15:38;;;;;;;95.07;39.30;;;10.40;99.90;;;;;;4989529;28;20042;-68
2021/04/01 03:18:07;;;;;;;82.80;33.47;;;10.40;99.90;;;;;;4976060;28;20399;-68
2021/04/01 03:20:38;;;;;;;79.80;33.90;;;10.50;99.90;;;;;;4958760;28;20043;-68
2021/04/01 03:23:10;;;;;;;86.40;34.83;;;10.40;99.90;;;;;;4991219;28;20042;-68
2021/04/01 03:25:37;;;;;;;78.53;34.33;;;10.30;99.90;;;;;;4974846;28;20074;-68
2021/04/01 03:28:07;;;;;;;80.22;35.08;;;10.30;99.90;;;;;;4991089;28;20046;-68
2021/04/01 03:30:43;;;;;;;81.05;34.42;;;10.20;99.90;;;;;;4964481;28;20061;-69
2021/04/01 03:33:18;;;;;;;86.97;36.08;;;10.10;99.90;;;;;;4976180;28;20121;-68
2021/04/01 03:35:45;;;;;;;72.20;31.20;;;10.00;99.90;;;;;;4976177;28;20043;-68
2021/04/01 03:38:14;;;;;;;71.13;29.25;;;9.90;99.90;;;;;;4962868;28;20518;-69
2021/04/01 03:40:51;;;;;;;75.32;32.80;;;9.90;99.90;;;;;;4978172;28;20122;-68
2021/04/01 03:43:25;;;;;;;77.07;32.45;;;9.80;99.90;;;;;;4975389;28;20113;-68
2021/04/01 03:46:03;;;;;;;94.72;37.20;;;9.70;99.90;;;;;;4975214;28;20047;-68
2021/04/01 03:48:32;;;;;;;67.00;30.23;;;9.60;99.90;;;;;;4976989;28;20053;-68
2021/04/01 03:51:00;;;;;;;68.35;28.95;;;9.60;99.90;;;;;;4981807;28;20042;-68
2021/04/01 03:53:28;;;;;;;72.35;30.58;;;9.60;99.90;;;;;;4959451;28;20144;-68
2021/04/01 03:56:24;;;;;;;83.15;32.63;;;9.50;99.90;;;;;;4981266;28;20125;-68
2021/04/01 03:59:06;;;;;;;71.68;30.20;;;9.50;99.90;;;;;;4991561;28;20043;-68
2021/04/01 04:08:41;;;;;;;82.60;34.75;;;9.30;99.90;;;;;;4977392;28;20041;-68
2021/04/01 04:11:35;;;;;;;84.82;35.25;;;9.20;99.90;;;;;;4976567;28;20548;-68
2021/04/01 04:18:17;;;;;;;91.55;36.17;;;9.10;99.90;;;;;;4974622;28;19949;-68
2021/04/01 04:20:49;;;;;;;94.43;38.78;;;9.10;99.90;;;;;;4974943;28;20071;-68
2021/04/01 04:23:24;;;;;;;103.38;42.90;;;8.90;99.90;;;;;;4984084;28;20478;-68
2021/04/01 04:25:55;;;;;;;102.88;40.88;;;8.90;99.90;;;;;;4984641;28;20427;-68
2021/04/01 04:28:31;;;;;;;105.00;44.53;;;8.80;99.90;;;;;;4994071;28;20045;-68
2021/04/01 04:31:01;;;;;;;111.25;48.60;;;8.80;99.90;;;;;;4954450;28;20109;-68
2021/04/01 04:40:56;;;;;;;91.28;38.42;;;8.60;99.90;;;;;;4955158;28;20127;-68
2021/04/01 04:43:29;;;;;;;103.47;42.75;;;8.50;99.90;;;;;;4955028;28;20043;-68
2021/04/01 04:46:00;;;;;;;105.13;41.85;;;8.40;99.90;;;;;;4954790;29;20102;-68
2021/04/01 04:56:15;;;;;;;94.20;38.50;;;8.30;99.90;;;;;;4955041;28;20090;-68
2021/04/01 05:08:32;;;;;;;62.17;26.77;;;8.00;99.90;;;;;;4954949;28;20127;-68
2021/04/01 05:11:01;;;;;;;55.63;23.30;;;8.00;99.90;;;;;;4969196;28;20101;-68
2021/04/01 05:13:34;;;;;;;54.47;19.65;;;7.90;99.90;;;;;;4965133;28;20047;-68
2021/04/01 05:16:01;;;;;;;51.33;20.13;;;7.80;99.90;;;;;;4959271;28;20039;-68
2021/04/01 05:28:45;;;;;;;35.28;11.73;;;7.50;99.90;;;;;;4958427;28;20053;-68
2021/04/01 05:31:35;;;;;;;27.63;9.63;;;7.50;99.90;;;;;;4976171;28;20499;-69
2021/04/01 05:34:11;;;;;;;23.10;7.30;;;7.50;99.90;;;;;;4978126;28;20039;-68
2021/04/01 05:36:41;;;;;;;27.55;6.50;;;7.50;99.90;;;;;;4981154;28;20398;-69
2021/04/01 05:39:23;;;;;;;21.83;6.03;;;7.50;99.90;;;;;;4997060;28;20129;-68
2021/04/01 05:41:49;;;;;;;14.52;4.57;;;7.30;99.90;;;;;;4961204;28;20058;-67
2021/04/01 05:51:27;;;;;;;18.13;3.00;;;7.30;99.90;;;;;;4981185;28;20050;-68
2021/04/01 06:04:42;;;;;;;19.93;3.03;;;7.20;99.90;;;;;;4981695;28;20084;-68
2021/04/01 06:07:24;;;;;;;16.90;2.45;;;7.20;99.90;;;;;;4980545;28;20126;-66
2021/04/01 06:09:58;;;;;;;13.40;3.22;;;7.20;99.90;;;;;;4966053;28;20073;-66
2021/04/01 06:12:52;;;;;;;20.88;3.55;;;7.30;99.90;;;;;;4996032;28;20038;-68
2021/04/01 06:19:08;;;;;;;16.45;2.45;;;7.30;99.90;;;;;;4976979;28;20106;-67
2021/04/01 06:21:43;;;;;;;15.55;2.60;;;7.20;99.90;;;;;;4991778;28;20065;-67
2021/04/01 06:24:25;;;;;;;18.75;2.42;;;7.20;99.90;;;;;;4976930;28;20549;-67
2021/04/01 06:27:11;;;;;;;24.30;3.63;;;7.20;99.90;;;;;;4995588;28;20043;-68
2021/04/01 06:29:40;;;;;;;19.33;2.90;;;7.20;99.90;;;;;;4987948;28;20506;-69
2021/04/01 06:32:32;;;;;;;14.13;2.70;;;7.40;99.90;;;;;;4987361;28;20053;-68
2021/04/01 06:39:03;;;;;;;23.55;3.00;;;7.40;99.90;;;;;;4991466;28;20053;-68
2021/04/01 06:41:34;;;;;;;18.13;2.25;;;7.40;99.90;;;;;;4976254;28;20047;-68
2021/04/01 06:44:19;;;;;;;13.95;2.72;;;7.50;99.90;;;;;;4989393;28;20053;-68
2021/04/01 06:47:12;;;;;;;12.85;2.15;;;7.50;99.90;;;;;;4991340;28;20558;-67
2021/04/01 06:54:17;;;;;;;20.40;3.25;;;7.60;99.90;;;;;;4981278;28;20046;-67
2021/04/01 06:57:33;;;;;;;20.20;3.33;;;7.70;99.90;;;;;;4992155;28;20122;-68
2021/04/01 07:06:36;;;;;;;17.58;2.42;;;7.70;99.90;;;;;;4993047;28;20561;-67
2021/04/01 07:12:34;;;;;;;25.27;3.28;;;7.80;99.90;;;;;;4975979;28;20487;-68
2021/04/01 07:15:21;;;;;;;18.23;2.67;;;7.80;99.90;;;;;;4983505;28;20054;-67
2021/04/01 07:46:44;;;;;;;21.70;3.85;;;8.00;99.90;;;;;;4960632;28;20491;-66
2021/04/01 07:49:23;;;;;;;19.73;3.65;;;7.90;99.90;;;;;;4956038;29;20451;-66
2021/04/01 07:52:25;;;;;;;24.02;3.05;;;7.90;99.90;;;;;;4949503;28;20178;-66
2021/04/01 07:55:08;;;;;;;11.77;1.85;;;7.90;99.90;;;;;;4955989;28;20042;-65
2021/04/01 08:04:31;;;;;;;9.43;1.92;;;8.00;99.90;;;;;;4955715;29;20090;-64
2021/04/01 08:07:18;;;;;;;22.98;2.72;;;8.10;99.90;;;;;;4950291;28;20158;-65
2021/04/01 08:09:58;;;;;;;11.90;1.67;;;8.10;99.90;;;;;;4955650;28;20483;-65
2021/04/01 08:17:30;;;;;;;13.57;2.47;;;8.10;99.90;;;;;;4960990;28;20086;-65
2021/04/01 08:20:01;;;;;;;10.80;1.88;;;8.20;99.90;;;;;;4947774;28;20062;-66
2021/04/01 08:27:21;;;;;;;10.23;1.67;;;8.20;99.90;;;;;;4971551;28;20037;-66
2021/04/01 08:34:36;;;;;;;13.35;1.77;;;8.20;99.90;;;;;;4973892;28;20097;-68
2021/04/01 08:44:55;;;;;;;8.93;1.65;;;8.40;99.90;;;;;;4975528;28;20043;-65
2021/04/01 08:51:51;;;;;;;9.35;1.45;;;8.50;99.90;;;;;;4987972;28;20080;-64
2021/04/01 08:54:44;;;;;;;8.43;1.70;;;8.30;99.90;;;;;;4995254;28;20038;-65
2021/04/01 08:57:27;;;;;;;14.13;1.92;;;8.40;99.90;;;;;;4981053;28;20070;-63
2021/04/01 09:00:09;;;;;;;8.90;1.77;;;8.50;99.90;;;;;;4960973;28;20097;-64
2021/04/01 09:02:37;;;;;;;12.57;1.80;;;8.70;99.90;;;;;;4985371;28;20043;-69
2021/04/01 09:05:11;;;;;;;15.23;2.10;;;8.80;99.90;;;;;;4977258;28;20047;-66
2021/04/01 09:08:01;;;;;;;10.18;1.85;;;8.80;99.90;;;;;;4944906;28;20038;-67
2021/04/01 09:14:58;;;;;;;16.33;1.98;;;9.00;99.90;;;;;;4977472;28;20046;-67
2021/04/01 09:21:31;;;;;;;12.98;1.95;;;8.90;99.90;;;;;;4994210;28;20092;-67
2021/04/01 09:27:47;;;;;;;13.70;1.45;;;9.10;99.90;;;;;;4978225;28;20073;-68
2021/04/01 09:30:40;;;;;;;12.82;2.05;;;9.20;99.90;;;;;;4981471;28;20042;-64
2021/04/01 09:33:21;;;;;;;7.80;2.03;;;9.20;99.90;;;;;;4969954;28;20063;-65
2021/04/01 09:36:21;;;;;;;8.32;1.85;;;9.20;99.90;;;;;;4958225;28;20114;-65
2021/04/01 09:42:46;;;;;;;12.23;2.28;;;9.20;99.90;;;;;;4958461;29;20443;-67
2021/04/01 09:45:26;;;;;;;10.63;2.30;;;9.20;99.90;;;;;;4957698;28;20094;-65
2021/04/01 09:48:04;;;;;;;11.57;1.70;;;9.20;99.90;;;;;;4964173;28;20566;-67
2021/04/01 09:50:44;;;;;;;11.75;1.50;;;9.20;99.90;;;;;;4977278;28;20379;-66
2021/04/01 09:57:34;;;;;;;12.80;1.85;;;9.20;99.90;;;;;;4971244;28;20054;-66
2021/04/01 10:03:20;;;;;;;17.00;2.95;;;9.20;99.90;;;;;;4960846;28;20478;-67
2021/04/01 10:10:05;;;;;;;14.50;2.58;;;9.20;99.90;;;;;;4963193;28;20086;-66
2021/04/01 10:12:41;;;;;;;20.90;2.38;;;9.20;99.90;;;;;;4968397;28;20047;-67
2021/04/01 10:15:12;;;;;;;23.40;2.88;;;9.20;99.90;;;;;;4966913;28;20546;-67
2021/04/01 10:17:41;;;;;;;19.15;2.78;;;9.20;99.90;;;;;;4957572;28;20125;-68
2021/04/01 10:20:09;;;;;;;21.75;2.97;;;9.30;99.90;;;;;;4967714;28;20043;-66
2021/04/01 10:22:44;;;;;;;15.98;2.80;;;9.30;99.90;;;;;;4957437;28;20039;-66
2021/04/01 10:25:36;;;;;;;15.65;2.92;;;9.20;99.90;;;;;;4959852;28;20090;-67
2021/04/01 10:28:56;;;;;;;17.08;2.75;;;9.30;99.90;;;;;;4962567;28;20063;-66
2021/04/01 10:42:39;;;;;;;11.00;2.08;;;9.40;99.90;;;;;;4987378;28;20069;-68
2021/04/01 10:45:20;;;;;;;12.32;2.40;;;9.60;99.90;;;;;;4980595;28;20045;-66
2021/04/01 10:48:21;;;;;;;23.38;3.40;;;9.50;99.90;;;;;;4977907;28;20046;-66
2021/04/01 10:50:56;;;;;;;16.25;2.92;;;9.40;99.90;;;;;;4974776;28;20138;-66
2021/04/01 10:53:50;;;;;;;18.95;2.40;;;9.40;99.90;;;;;;4959614;28;20133;-66
2021/04/01 10:56:26;;;;;;;23.25;3.22;;;9.40;99.90;;;;;;4982083;28;20051;-66
2021/04/01 10:58:55;;;;;;;23.00;2.83;;;9.40;99.90;;;;;;4957975;28;20070;-66
2021/04/01 11:05:21;;;;;;;13.77;2.65;;;9.20;99.90;;;;;;4995132;28;20041;-66
2021/04/01 11:08:10;;;;;;;11.32;2.65;;;9.20;99.90;;;;;;4995413;28;20397;-66
2021/04/01 11:10:47;;;;;;;12.30;1.83;;;9.20;99.90;;;;;;4976365;28;20063;-66
2021/04/01 11:13:14;;;;;;;10.98;1.90;;;9.20;99.90;;;;;;4980650;28;20138;-66
2021/04/01 11:15:49;;;;;;;8.45;2.30;;;9.20;99.90;;;;;;4976432;28;20065;-66
2021/04/01 11:22:36;;;;;;;10.75;2.00;;;9.30;99.90;;;;;;4980313;28;20482;-67
2021/04/01 11:25:13;;;;;;;10.63;2.33;;;9.30;99.90;;;;;;4976875;28;20442;-67
2021/04/01 11:35:10;;;;;;;22.23;3.50;;;9.20;99.90;;;;;;4977446;28;20054;-65
2021/04/01 11:37:48;;;;;;;12.73;2.70;;;9.20;99.90;;;;;;4994015;28;20046;-65
2021/04/01 11:40:16;;;;;;;14.25;2.03;;;9.20;99.90;;;;;;4986964;28;20444;-66
2021/04/01 11:42:53;;;;;;;14.90;2.58;;;9.30;99.90;;;;;;4958189;28;20124;-65
2021/04/01 11:45:41;;;;;;;13.32;2.20;;;9.20;99.90;;;;;;4975240;28;20067;-66
2021/04/01 11:48:10;;;;;;;15.38;3.35;;;9.10;99.90;;;;;;4979360;28;20074;-64
2021/04/01 11:50:55;;;;;;;19.38;1.92;;;9.30;99.90;;;;;;4981277;28;20042;-65
2021/04/01 11:53:23;;;;;;;17.25;2.97;;;9.40;99.90;;;;;;4956405;28;20047;-65
2021/04/01 11:55:59;;;;;;;16.95;2.90;;;9.40;99.90;;;;;;4972042;28;20524;-64
2021/04/01 11:58:32;;;;;;;14.05;2.47;;;9.40;99.90;;;;;;4974046;28;20050;-64
2021/04/01 12:04:45;;;;;;;13.65;2.35;;;9.40;99.90;;;;;;4990762;28;20041;-66
2021/04/01 12:07:42;;;;;;;7.93;2.17;;;9.30;99.90;;;;;;4980343;28;20074;-68
2021/04/01 12:10:16;;;;;;;13.25;2.20;;;9.20;99.90;;;;;;4957827;28;20050;-67
2021/04/01 12:13:03;;;;;;;15.23;1.90;;;9.10;99.90;;;;;;4976963;28;20486;-67
2021/04/01 12:22:44;;;;;;;12.10;2.28;;;9.20;99.90;;;;;;4974931;28;20121;-67
2021/04/01 12:25:18;;;;;;;10.75;2.75;;;9.20;99.90;;;;;;4974723;28;20047;-68
2021/04/01 12:27:57;;;;;;;16.15;3.13;;;9.20;99.90;;;;;;4974179;28;20483;-68
2021/04/01 12:31:10;;;;;;;11.00;2.42;;;9.30;99.90;;;;;;4977342;28;20039;-70
2021/04/01 12:33:54;;;;;;;8.27;1.65;;;9.30;99.90;;;;;;4956760;28;20490;-67
2021/04/01 12:40:18;;;;;;;8.45;1.42;;;9.10;99.90;;;;;;4973138;28;20033;-68
2021/04/01 12:43:13;;;;;;;8.00;1.33;;;8.90;99.90;;;;;;4956169;28;20487;-68
2021/04/01 12:45:42;;;;;;;5.57;1.70;;;8.90;99.90;;;;;;4955595;28;20047;-68
2021/04/01 12:48:17;;;;;;;13.95;1.70;;;8.90;99.90;;;;;;4958030;28;20039;-67
2021/04/01 12:51:00;;;;;;;9.40;1.42;;;8.70;99.90;;;;;;4957883;28;20039;-68
2021/04/01 12:57:42;;;;;;;6.18;1.48;;;8.70;99.90;;;;;;4970297;28;20093;-67
2021/04/01 13:00:26;;;;;;;8.00;1.63;;;8.50;99.90;;;;;;4974596;28;20097;-66
2021/04/01 13:17:41;;;;;;;10.63;1.77;;;8.50;99.90;;;;;;4969794;28;20065;-68
2021/04/01 13:20:11;;;;;;;7.65;1.40;;;8.50;99.90;;;;;;4974389;28;20125;-68
2021/04/01 13:25:30;;;;;;;6.60;1.35;;;8.40;99.90;;;;;;4961718;28;20047;-68
2021/04/01 13:28:05;;;;;;;6.45;1.35;;;8.40;99.90;;;;;;4954809;28;20179;-67
2021/04/01 13:31:00;;;;;;;7.70;1.58;;;8.40;99.90;;;;;;4957770;28;20055;-68
2021/04/01 13:34:12;;;;;;;7.75;1.80;;;8.40;99.90;;;;;;4964560;28;20054;-71
2021/04/01 13:40:19;;;;;;;9.25;1.73;;;8.40;99.90;;;;;;4958301;28;20043;-66
2021/04/01 13:45:51;;;;;;;5.20;1.90;;;8.60;99.90;;;;;;4973559;28;19969;-68
2021/04/01 13:48:23;;;;;;;7.05;2.55;;;8.60;99.90;;;;;;4976784;28;20046;-68
2021/04/01 13:57:50;;;;;;;10.75;1.63;;;8.60;99.90;;;;;;4969724;28;20065;-66
2021/04/01 14:10:49;;;;;;;;;;;;;;;;;;;;;
2021/04/01 14:17:42;;;;;;;4.82;1.17;;;8.70;99.90;;;;;;4965322;28;20082;-67
2021/04/01 14:20:25;;;;;;;12.35;1.70;;;8.70;99.90;;;;;;4967440;28;20122;-67
2021/04/01 14:22:59;;;;;;;10.02;1.77;;;8.70;99.90;;;;;;4956048;28;20047;-67
2021/04/01 14:25:48;;;;;;;8.35;1.30;;;8.70;99.90;;;;;;4942458;28;20043;-66
2021/04/01 14:32:11;;;;;;;7.10;1.30;;;8.90;99.90;;;;;;4964349;28;20038;-66
2021/04/01 14:34:40;;;;;;;3.70;1.23;;;8.90;99.90;;;;;;4965173;28;20067;-68
2021/04/01 14:37:50;;;;;;;6.57;1.50;;;8.90;99.90;;;;;;4974035;28;20057;-67
2021/04/01 14:40:21;;;;;;;4.57;1.13;;;8.80;99.90;;;;;;4991440;28;20034;-69
2021/04/01 14:42:51;;;;;;;11.88;1.77;;;8.70;99.90;;;;;;4959770;28;20070;-68
2021/04/01 14:45:39;;;;;;;8.82;1.48;;;8.80;99.90;;;;;;4970511;28;20042;-74
2021/04/01 14:48:09;;;;;;;5.95;1.50;;;9.00;99.90;;;;;;4978918;28;20046;-73
2021/04/01 14:50:58;;;;;;;9.48;2.05;;;9.20;99.90;;;;;;4988723;28;20042;-73
2021/04/01 14:53:44;;;;;;;2.50;1.00;;;9.20;99.90;;;;;;4944964;28;20047;-73
2021/04/01 14:56:32;;;;;;;7.40;1.25;;;9.10;99.90;;;;;;4959082;28;20459;-73
2021/04/01 14:59:09;;;;;;;8.90;1.95;;;9.10;99.90;;;;;;4962847;28;20049;-71
2021/04/01 15:05:24;;;;;;;15.48;2.28;;;8.90;99.90;;;;;;4976077;28;20046;-73
2021/04/01 15:08:02;;;;;;;14.02;2.15;;;8.90;99.90;;;;;;4959488;28;20039;-73
2021/04/01 15:10:59;;;;;;;8.57;1.50;;;8.90;99.90;;;;;;4979724;28;20118;-74
2021/04/01 15:13:31;;;;;;;7.57;1.83;;;9.00;99.90;;;;;;4959274;28;20047;-74
2021/04/01 15:20:18;;;;;;;6.60;1.20;;;9.10;99.90;;;;;;4986578;28;20496;-66
2021/04/01 15:22:51;;;;;;;13.88;1.65;;;9.10;99.90;;;;;;4975998;28;20133;-74
2021/04/01 15:25:25;;;;;;;6.18;1.48;;;9.10;99.90;;;;;;4970166;28;20053;-72
2021/04/01 15:27:55;;;;;;;9.05;1.48;;;9.00;99.90;;;;;;4958454;28;20554;-70
2021/04/01 15:30:22;;;;;;;9.13;1.63;;;9.00;99.90;;;;;;4970150;28;20043;-72
2021/04/01 15:32:53;;;;;;;6.43;1.25;;;8.90;99.90;;;;;;4984478;28;20043;-74
2021/04/01 15:35:24;;;;;;;9.77;1.58;;;9.00;99.90;;;;;;4953315;28;20506;-73
2021/04/01 15:37:53;;;;;;;9.05;1.50;;;8.70;99.90;;;;;;4982507;28;20053;-75
2021/04/01 15:40:40;;;;;;;6.85;1.42;;;8.60;99.90;;;;;;4980800;28;20038;-73
2021/04/01 15:43:29;;;;;;;12.45;2.25;;;8.70;99.90;;;;;;4942248;28;20491;-73
2021/04/01 15:46:32;;;;;;;9.43;2.20;;;8.70;99.90;;;;;;4975511;28;20513;-76
2021/04/01 15:52:47;;;;;;;7.40;1.65;;;8.70;99.90;;;;;;4975054;28;20053;-78
2021/04/01 15:55:22;;;;;;;6.93;1.42;;;8.70;99.90;;;;;;4975060;28;20038;-72
2021/04/01 16:01:29;;;;;;;8.77;1.20;;;8.70;99.90;;;;;;4974486;28;20057;-70
2021/04/01 16:11:04;;;;;;;6.60;1.20;;;8.70;99.90;;;;;;4981262;28;20561;-67
2021/04/01 16:13:35;;;;;;;7.93;1.58;;;8.60;99.90;;;;;;4974949;28;20053;-73
2021/04/01 16:16:46;;;;;;;6.85;1.63;;;8.60;99.90;;;;;;4970395;28;20074;-75
2021/04/01 16:19:24;;;;;;;11.18;1.77;;;8.60;99.90;;;;;;4979700;28;20497;-74
2021/04/01 16:21:52;;;;;;;5.78;1.80;;;8.60;99.90;;;;;;4980262;28;20521;-74
2021/04/01 16:28:33;;;;;;;4.85;1.33;;;8.50;99.90;;;;;;4978718;28;20038;-74
2021/04/01 16:31:06;;;;;;;10.18;1.80;;;8.40;99.90;;;;;;4974704;28;20039;-74
2021/04/01 16:33:35;;;;;;;8.70;1.92;;;8.40;99.90;;;;;;4967300;28;20402;-74
2021/04/01 16:36:09;;;;;;;9.13;2.05;;;8.40;99.90;;;;;;4983463;28;20050;-74
2021/04/01 16:38:40;;;;;;;7.82;1.30;;;8.20;99.90;;;;;;4974729;28;20380;-73
2021/04/01 16:41:09;;;;;;;8.50;1.55;;;8.20;99.90;;;;;;4973598;28;20039;-73
2021/04/01 16:43:51;;;;;;;12.35;2.17;;;8.20;99.90;;;;;;4941877;28;20062;-74
2021/04/01 16:46:51;;;;;;;13.57;2.75;;;8.30;99.90;;;;;;4960748;28;20058;-73
2021/04/01 16:49:21;;;;;;;7.20;1.50;;;8.20;99.90;;;;;;4980843;28;20439;-73
2021/04/01 16:51:59;;;;;;;9.55;2.38;;;8.10;99.90;;;;;;4942221;28;20130;-74
2021/04/01 16:58:52;;;;;;;11.18;1.75;;;7.90;99.90;;;;;;4974194;28;20452;-74
2021/04/01 17:01:21;;;;;;;6.95;2.15;;;7.90;99.90;;;;;;4961968;28;20042;-73
2021/04/01 17:04:20;;;;;;;8.18;1.60;;;7.80;99.90;;;;;;4959309;28;20050;-74
2021/04/01 17:07:04;;;;;;;9.45;1.63;;;7.60;99.90;;;;;;4974418;28;20043;-74
2021/04/01 17:13:32;;;;;;;6.55;1.63;;;7.60;99.90;;;;;;4993778;28;20053;-73
2021/04/01 17:16:40;;;;;;;4.90;1.77;;;7.60;99.90;;;;;;4978239;28;20046;-73
2021/04/01 17:23:42;;;;;;;9.25;2.33;;;7.60;99.90;;;;;;4986903;28;20092;-74
2021/04/01 17:33:39;;;;;;;4.20;1.65;;;7.50;99.90;;;;;;4992949;28;20072;-74
2021/04/01 17:36:10;;;;;;;6.75;1.92;;;7.50;99.90;;;;;;4957360;28;20070;-73
2021/04/01 17:38:39;;;;;;;7.38;1.73;;;7.40;99.90;;;;;;4958610;28;20039;-73
2021/04/01 17:41:40;;;;;;;5.28;1.48;;;7.40;99.90;;;;;;4960035;28;20051;-74
2021/04/01 17:44:43;;;;;;;5.93;1.80;;;7.40;99.90;;;;;;4970016;28;20391;-74
2021/04/01 17:47:26;;;;;;;8.80;1.60;;;7.40;99.90;;;;;;4958664;29;20043;-73
2021/04/01 17:54:26;;;;;;;7.78;1.50;;;7.40;99.90;;;;;;4969042;28;20070;-73
2021/04/01 18:22:45;;;;;;;10.75;2.15;;;6.80;99.90;;;;;;4957610;28;20051;-73
2021/04/01 18:25:02;;;;;;;5.88;1.70;;;6.60;99.90;;;;;;4960953;28;20142;-73
2021/04/01 18:34:21;;;;;;;5.20;1.92;;;6.50;99.90;;;;;;4957346;28;20047;-70
2021/04/01 18:44:30;;;;;;;3.35;1.30;;;6.40;99.90;;;;;;4976630;28;20058;-67
2021/04/01 18:51:09;;;;;;;5.47;1.48;;;6.30;99.90;;;;;;4978680;28;20038;-66
2021/04/01 18:54:10;;;;;;;6.78;1.30;;;6.30;99.90;;;;;;4983541;28;20050;-66
2021/04/01 18:56:49;;;;;;;4.25;1.10;;;6.20;99.90;;;;;;4992509;28;20112;-64
2021/04/01 18:59:32;;;;;;;7.03;2.03;;;6.20;99.90;;;;;;4995268;28;20038;-65
2021/04/01 19:04:50;;;;;;;6.30;1.17;;;6.20;99.90;;;;;;4990098;28;20066;-66
2021/04/01 19:07:22;;;;;;;10.90;2.22;;;6.20;99.90;;;;;;4963738;28;20396;-64
2021/04/01 19:09:57;;;;;;;9.18;2.78;;;6.10;99.90;;;;;;4982010;28;20101;-63
2021/04/01 19:26:42;;;;;;;5.47;1.55;;;6.00;99.90;;;;;;4978431;28;20038;-65
2021/04/01 19:33:10;;;;;;;10.68;1.65;;;5.90;99.90;;;;;;4982152;28;20062;-67
2021/04/01 19:35:49;;;;;;;4.40;1.17;;;5.80;99.90;;;;;;4948427;28;20055;-66
2021/04/01 19:39:07;;;;;;;6.35;1.17;;;5.80;99.90;;;;;;4981497;28;20042;-64
2021/04/01 19:41:43;;;;;;;4.60;0.80;;;5.70;99.90;;;;;;4975803;28;20494;-64
2021/04/01 19:44:13;;;;;;;5.00;1.77;;;5.80;99.90;;;;;;4974054;28;20050;-65
2021/04/01 19:46:51;;;;;;;6.78;1.15;;;5.80;99.90;;;;;;4960027;28;20052;-66
2021/04/01 19:57:00;;;;;;;2.90;0.85;;;5.60;99.90;;;;;;4975026;28;20046;-66
2021/04/01 19:59:42;;;;;;;7.20;1.10;;;5.60;99.90;;;;;;4987328;28;20430;-66
2021/04/01 20:05:53;;;;;;;6.25;1.38;;;5.60;99.90;;;;;;4974747;28;20101;-64
2021/04/01 20:09:12;;;;;;;7.18;1.00;;;5.60;99.90;;;;;;4988087;28;20434;-65
2021/04/01 20:11:42;;;;;;;6.65;1.10;;;5.60;99.90;;;;;;4970771;28;20043;-65
2021/04/01 20:14:17;;;;;;;3.95;1.17;;;5.60;99.90;;;;;;4977098;28;20054;-67
2021/04/01 20:16:52;;;;;;;4.60;1.27;;;5.60;99.90;;;;;;4959016;28;20126;-66
2021/04/01 20:19:27;;;;;;;4.80;1.58;;;5.50;99.90;;;;;;4974933;28;20117;-66
2021/04/01 20:22:03;;;;;;;2.88;1.33;;;5.50;99.90;;;;;;4975860;28;20140;-66
2021/04/01 20:24:55;;;;;;;18.27;7.22;;;5.50;99.90;;;;;;4992313;28;20129;-67
2021/04/01 20:34:13;;;;;;;6.82;1.50;;;5.40;99.90;;;;;;4978084;28;20521;-67
2021/04/01 20:37:04;;;;;;;4.07;1.13;;;5.30;99.90;;;;;;4972723;28;20047;-67
2021/04/01 20:39:55;;;;;;;5.65;1.75;;;5.30;99.90;;;;;;4971188;28;20082;-67
2021/04/01 20:42:25;;;;;;;8.65;1.50;;;5.30;99.90;;;;;;4977978;28;20049;-67
2021/04/01 20:45:00;;;;;;;3.72;1.00;;;5.30;99.90;;;;;;4979539;28;20046;-67
2021/04/01 20:51:46;;;;;;;8.85;1.70;;;5.30;99.90;;;;;;4979403;28;20030;-67
2021/04/01 20:57:24;;;;;;;4.63;1.50;;;5.30;99.90;;;;;;4980111;28;20068;-67
2021/04/01 21:04:16;;;;;;;5.30;1.45;;;5.30;99.90;;;;;;4974085;28;20078;-68
2021/04/01 21:06:48;;;;;;;4.95;1.48;;;5.30;99.90;;;;;;4989494;28;20055;-68
2021/04/01 21:09:16;;;;;;;3.35;1.02;;;5.30;99.90;;;;;;4974708;28;20055;-67
2021/04/01 21:11:47;;;;;;;9.93;1.80;;;5.20;99.90;;;;;;4976682;28;20108;-68
2021/04/01 21:14:20;;;;;;;5.57;1.05;;;5.30;99.90;;;;;;4994037;28;20050;-67
2021/04/01 21:16:47;;;;;;;8.13;1.17;;;5.20;99.90;;;;;;4973727;28;20475;-68
2021/04/01 21:26:53;;;;;;;1.85;0.70;;;5.30;99.90;;;;;;4974274;28;20042;-68
2021/04/01 21:29:23;;;;;;;3.38;0.90;;;5.30;99.90;;;;;;4977023;28;20215;-67
2021/04/01 21:32:12;;;;;;;4.00;1.15;;;5.30;99.90;;;;;;4974293;28;20053;-68
2021/04/01 21:35:05;;;;;;;1.92;0.80;;;5.30;99.90;;;;;;4959013;28;20047;-67
2021/04/01 21:37:56;;;;;;;2.13;0.93;;;5.30;99.90;;;;;;4952136;28;20051;-67